Time;durP1;ratioP1;P1;durP2;ratioP2;P2;SDS_P1;SDS_P2;PMS_P1;PMS_P2;Temp;Humidity;BMP_temperature;BMP_pressure;BME280_temperature;BME280_humidity;BME280_pressure;Samples;Min_cycle;Max_cycle;Signal;HPM_P1;HPM_P2
2022/03/10 00:01:09;;;;;;;35.95;16.20;;;7.60;92.70;;;;;;5032828;28;20450;-65
2022/03/10 00:03:35;;;;;;;35.40;16.02;;;7.60;92.70;;;;;;5035806;28;20041;-64
2022/03/10 00:06:01;;;;;;;34.50;15.38;;;7.60;92.60;;;;;;5036150;28;20033;-63
2022/03/10 00:08:26;;;;;;;37.75;15.82;;;7.50;92.60;;;;;;5035724;28;20021;-62
2022/03/10 00:10:52;;;;;;;35.92;16.55;;;7.50;92.60;;;;;;5035577;28;20415;-63
2022/03/10 00:13:17;;;;;;;32.90;15.65;;;7.50;92.50;;;;;;5033981;28;20021;-65
2022/03/10 00:15:43;;;;;;;36.15;16.40;;;7.50;92.50;;;;;;5035724;28;20025;-64
2022/03/10 00:18:08;;;;;;;36.03;15.60;;;7.50;92.60;;;;;;5035008;28;20465;-65
2022/03/10 00:20:34;;;;;;;34.63;16.27;;;7.50;92.60;;;;;;5035791;28;20079;-65
2022/03/10 00:23:00;;;;;;;32.70;14.70;;;7.40;92.60;;;;;;5035913;28;20481;-64
2022/03/10 00:25:25;;;;;;;33.05;14.63;;;7.40;93.10;;;;;;5038631;28;20083;-65
2022/03/10 00:27:51;;;;;;;34.30;15.63;;;7.40;93.00;;;;;;5034507;28;20041;-64
2022/03/10 00:30:17;;;;;;;36.03;16.15;;;7.40;92.90;;;;;;5035275;28;20014;-64
2022/03/10 00:32:50;;;;;;;30.95;14.98;;;7.40;92.80;;;;;;5034981;28;20037;-61
2022/03/10 00:35:20;;;;;;;35.42;15.02;;;7.40;92.90;;;;;;5034765;28;20022;-64
2022/03/10 00:37:47;;;;;;;30.73;15.27;;;7.40;93.00;;;;;;5034581;28;20100;-64
2022/03/10 00:40:13;;;;;;;32.75;14.60;;;7.30;93.40;;;;;;5027731;28;20029;-64
2022/03/10 00:42:40;;;;;;;34.53;15.50;;;7.30;93.10;;;;;;5034694;28;20033;-64
2022/03/10 00:45:07;;;;;;;33.13;15.02;;;7.30;93.00;;;;;;5033359;28;20465;-62
2022/03/10 00:47:33;;;;;;;34.92;15.63;;;7.30;93.00;;;;;;5023815;28;20389;-65
2022/03/10 00:49:59;;;;;;;32.33;15.57;;;7.30;93.00;;;;;;5034443;28;20043;-64
2022/03/10 00:52:25;;;;;;;32.67;14.65;;;7.30;93.00;;;;;;5033609;28;20037;-64
2022/03/10 00:54:50;;;;;;;32.30;14.43;;;7.30;92.80;;;;;;5035230;28;20449;-63
2022/03/10 00:57:16;;;;;;;33.67;15.07;;;7.20;92.70;;;;;;5016562;28;20026;-62
2022/03/10 00:59:42;;;;;;;33.00;14.90;;;7.20;92.70;;;;;;5030243;28;20091;-64
2022/03/10 01:02:07;;;;;;;32.15;14.00;;;7.20;92.80;;;;;;5029074;28;20369;-64
2022/03/10 01:04:33;;;;;;;30.20;14.02;;;7.20;92.70;;;;;;5034621;28;20030;-62
2022/03/10 01:06:58;;;;;;;30.95;14.85;;;7.10;92.70;;;;;;5023277;28;20045;-62
2022/03/10 01:09:24;;;;;;;29.75;14.80;;;7.10;92.80;;;;;;5016887;28;20088;-63
2022/03/10 01:11:50;;;;;;;29.35;13.57;;;7.10;92.80;;;;;;5023565;28;20048;-65
2022/03/10 01:14:15;;;;;;;36.60;15.88;;;7.10;92.90;;;;;;5031316;28;20094;-63
2022/03/10 01:16:41;;;;;;;34.05;15.02;;;7.10;92.90;;;;;;5026477;28;20492;-63
2022/03/10 01:19:08;;;;;;;35.75;14.63;;;7.10;92.90;;;;;;5025797;28;20133;-64
2022/03/10 01:21:34;;;;;;;32.33;15.02;;;7.00;92.90;;;;;;5030728;28;20026;-65
2022/03/10 01:24:00;;;;;;;31.80;15.20;;;7.00;93.00;;;;;;5019970;28;20399;-65
2022/03/10 01:26:26;;;;;;;30.33;14.60;;;7.00;93.00;;;;;;5023524;28;20033;-64
2022/03/10 01:28:52;;;;;;;34.50;15.25;;;7.00;93.00;;;;;;5029881;28;20036;-63
2022/03/10 01:31:17;;;;;;;29.58;14.20;;;7.00;93.10;;;;;;5031303;28;20468;-63
2022/03/10 01:33:43;;;;;;;30.70;14.30;;;6.90;93.20;;;;;;5015766;28;20026;-66
2022/03/10 01:36:09;;;;;;;33.55;15.30;;;6.90;93.30;;;;;;5015930;28;20112;-66
2022/03/10 01:38:39;;;;;;;33.97;15.07;;;6.90;93.50;;;;;;5023993;28;20512;-64
2022/03/10 01:41:05;;;;;;;31.92;15.52;;;6.80;93.50;;;;;;5029417;28;20105;-63
2022/03/10 01:43:31;;;;;;;30.83;14.77;;;6.80;93.50;;;;;;5030482;28;20033;-64
2022/03/10 01:45:57;;;;;;;30.10;14.57;;;6.80;93.60;;;;;;5014647;28;20028;-65
2022/03/10 01:48:23;;;;;;;36.78;14.70;;;6.80;93.70;;;;;;5031152;28;20421;-64
2022/03/10 01:50:49;;;;;;;32.83;14.32;;;6.80;93.80;;;;;;5021597;28;20109;-66
2022/03/10 01:53:15;;;;;;;34.42;14.23;;;6.80;94.00;;;;;;5025140;28;20029;-66
2022/03/10 01:55:41;;;;;;;31.48;13.63;;;6.80;94.00;;;;;;5020064;28;20037;-65
2022/03/10 01:58:07;;;;;;;32.17;14.07;;;6.80;94.00;;;;;;5023585;28;20025;-62
2022/03/10 02:00:32;;;;;;;32.45;14.65;;;6.70;94.10;;;;;;5031772;28;20108;-64
2022/03/10 02:02:58;;;;;;;35.45;15.98;;;6.70;94.20;;;;;;5033140;28;20032;-63
2022/03/10 02:05:24;;;;;;;31.52;14.32;;;6.70;94.40;;;;;;5032542;28;20417;-63
2022/03/10 02:10:35;;;;;;;31.27;14.95;;;6.70;94.60;;;;;;5033648;28;20398;-62
2022/03/10 02:13:00;;;;;;;31.15;13.93;;;6.60;94.90;;;;;;5033398;28;20026;-64
2022/03/10 02:18:12;;;;;;;31.77;15.10;;;6.60;94.90;;;;;;5031314;28;20064;-64
2022/03/10 02:20:39;;;;;;;28.30;14.48;;;6.60;95.00;;;;;;5032564;28;20034;-65
2022/03/10 02:23:07;;;;;;;34.03;15.55;;;6.50;95.10;;;;;;5033070;28;20068;-65
2022/03/10 02:25:33;;;;;;;32.13;14.52;;;6.50;95.20;;;;;;5032367;28;20045;-63
2022/03/10 02:27:59;;;;;;;33.10;15.57;;;6.50;95.30;;;;;;5033562;28;20088;-63
2022/03/10 02:30:28;;;;;;;32.97;14.80;;;6.50;95.40;;;;;;5032314;28;20025;-63
2022/03/10 02:32:54;;;;;;;33.88;15.63;;;6.50;95.50;;;;;;5032377;28;20022;-63
2022/03/10 02:35:20;;;;;;;33.50;15.65;;;6.40;95.60;;;;;;5033517;28;20379;-63
2022/03/10 02:37:45;;;;;;;35.38;15.93;;;6.40;95.80;;;;;;5031059;28;20060;-62
2022/03/10 02:40:12;;;;;;;34.05;15.35;;;6.40;95.80;;;;;;5026623;28;20026;-62
2022/03/10 02:42:38;;;;;;;33.42;15.07;;;6.40;96.10;;;;;;5032588;28;20394;-62
2022/03/10 02:45:06;;;;;;;29.83;14.48;;;6.40;96.20;;;;;;5031146;28;20030;-62
2022/03/10 02:47:32;;;;;;;32.58;15.02;;;6.40;96.30;;;;;;5022408;28;20037;-62
2022/03/10 02:49:58;;;;;;;34.67;16.08;;;6.30;96.40;;;;;;5031429;28;20032;-63
2022/03/10 02:52:23;;;;;;;33.90;15.68;;;6.30;96.60;;;;;;5032109;28;20064;-62
2022/03/10 02:54:50;;;;;;;33.35;14.90;;;6.30;96.60;;;;;;5031413;28;20036;-62
2022/03/10 02:57:16;;;;;;;35.67;15.45;;;6.20;96.80;;;;;;5032926;28;20031;-62
2022/03/10 02:59:42;;;;;;;32.88;15.88;;;6.20;97.00;;;;;;5032624;28;20104;-63
2022/03/10 03:02:09;;;;;;;34.47;15.85;;;6.20;97.10;;;;;;5032464;28;20025;-63
2022/03/10 03:04:34;;;;;;;32.20;15.85;;;6.20;97.20;;;;;;5032659;28;20501;-61
2022/03/10 03:07:00;;;;;;;35.47;16.83;;;6.20;97.40;;;;;;5032987;28;20120;-62
2022/03/10 03:09:26;;;;;;;31.63;15.20;;;6.10;97.40;;;;;;5030511;28;20029;-62
2022/03/10 03:11:52;;;;;;;35.63;16.15;;;6.10;97.50;;;;;;5032876;28;20194;-62
2022/03/10 03:14:22;;;;;;;33.72;15.27;;;6.10;97.80;;;;;;5032684;28;20021;-62
2022/03/10 03:16:50;;;;;;;35.13;16.30;;;6.00;98.00;;;;;;5032107;28;20038;-62
2022/03/10 03:19:16;;;;;;;34.30;16.27;;;6.00;98.10;;;;;;5032210;28;20026;-62
2022/03/10 03:21:41;;;;;;;33.55;15.25;;;6.00;98.20;;;;;;5032865;28;20037;-62
2022/03/10 03:24:07;;;;;;;43.83;17.77;;;6.00;98.30;;;;;;5031776;28;20053;-62
2022/03/10 03:26:33;;;;;;;35.03;16.25;;;6.00;98.40;;;;;;5033123;28;20167;-63
2022/03/10 03:28:58;;;;;;;35.08;15.30;;;5.90;98.40;;;;;;5032273;28;20354;-63
2022/03/10 03:31:24;;;;;;;32.38;16.10;;;5.90;98.70;;;;;;5032388;28;20040;-62
2022/03/10 03:33:50;;;;;;;37.47;16.73;;;5.90;98.90;;;;;;5032091;28;20105;-62
2022/03/10 03:36:16;;;;;;;36.92;16.38;;;5.90;99.00;;;;;;5032702;28;20112;-62
2022/03/10 03:38:41;;;;;;;37.50;16.45;;;5.90;99.10;;;;;;5033471;28;20510;-63
2022/03/10 03:41:07;;;;;;;32.58;15.88;;;5.80;99.50;;;;;;5033821;28;20034;-62
2022/03/10 03:43:32;;;;;;;34.70;16.02;;;5.80;99.60;;;;;;5041626;28;20040;-62
2022/03/10 03:45:58;;;;;;;41.17;15.80;;;5.80;99.70;;;;;;5031794;28;20037;-62
2022/03/10 03:48:24;;;;;;;35.47;16.42;;;5.80;99.80;;;;;;5032605;28;20112;-62
2022/03/10 03:50:50;;;;;;;38.05;16.85;;;5.70;99.90;;;;;;5027374;28;20092;-63
2022/03/10 03:53:16;;;;;;;34.38;16.30;;;5.70;99.90;;;;;;5031771;28;20033;-62
2022/03/10 03:55:42;;;;;;;37.05;17.58;;;5.70;99.90;;;;;;5032439;28;20103;-63
2022/03/10 03:58:07;;;;;;;36.13;16.52;;;5.60;99.90;;;;;;5031720;28;20033;-62
2022/03/10 04:00:34;;;;;;;40.55;16.35;;;5.60;99.90;;;;;;5031622;28;20040;-62
2022/03/10 04:03:09;;;;;;;35.10;16.55;;;5.60;99.90;;;;;;5031877;28;20472;-62
2022/03/10 04:05:35;;;;;;;39.20;17.50;;;5.50;99.90;;;;;;5032193;28;20116;-63
2022/03/10 04:08:01;;;;;;;33.38;16.17;;;5.50;99.90;;;;;;5031475;28;20057;-63
2022/03/10 04:10:26;;;;;;;39.22;17.42;;;5.50;99.90;;;;;;5031809;28;20037;-62
2022/03/10 04:12:52;;;;;;;34.88;17.65;;;5.50;99.90;;;;;;5032123;28;20101;-62
2022/03/10 04:15:17;;;;;;;40.42;17.88;;;5.50;99.90;;;;;;5035388;28;20026;-62
2022/03/10 04:17:43;;;;;;;38.58;17.88;;;5.40;99.90;;;;;;5034847;28;20026;-63
2022/03/10 04:20:13;;;;;;;35.67;16.15;;;5.40;99.90;;;;;;5034911;28;20025;-62
2022/03/10 04:22:39;;;;;;;33.70;15.82;;;5.40;99.90;;;;;;5034013;28;20172;-62
2022/03/10 04:25:06;;;;;;;36.00;17.98;;;5.40;99.90;;;;;;5030766;28;20370;-62
2022/03/10 04:27:32;;;;;;;33.05;16.02;;;5.40;99.90;;;;;;5044624;28;20036;-62
2022/03/10 04:29:58;;;;;;;32.85;15.45;;;5.40;99.90;;;;;;5034825;28;20034;-62
2022/03/10 04:32:23;;;;;;;37.35;17.77;;;5.40;99.90;;;;;;5034965;28;20477;-62
2022/03/10 04:34:49;;;;;;;40.05;18.45;;;5.40;99.90;;;;;;5035293;28;20044;-63
2022/03/10 04:37:15;;;;;;;36.72;17.15;;;5.40;99.90;;;;;;5035910;28;20056;-62
2022/03/10 04:39:40;;;;;;;36.60;16.20;;;5.40;99.90;;;;;;5034322;28;20037;-63
2022/03/10 04:42:06;;;;;;;34.97;17.48;;;5.30;99.90;;;;;;5034620;28;20025;-62
2022/03/10 04:44:31;;;;;;;35.83;16.63;;;5.30;99.90;;;;;;5035185;28;20022;-63
2022/03/10 04:46:57;;;;;;;40.38;18.35;;;5.30;99.90;;;;;;5035160;28;20033;-62
2022/03/10 04:49:22;;;;;;;38.90;17.42;;;5.30;99.90;;;;;;5034634;28;20048;-63
2022/03/10 04:51:48;;;;;;;37.85;17.13;;;5.30;99.90;;;;;;5033770;28;20112;-63
2022/03/10 04:54:14;;;;;;;37.58;17.30;;;5.30;99.90;;;;;;5034679;28;20033;-63
2022/03/10 04:56:39;;;;;;;38.88;17.52;;;5.30;99.90;;;;;;5035521;28;20033;-62
2022/03/10 04:59:05;;;;;;;37.05;17.67;;;5.20;99.90;;;;;;5032349;28;20053;-62
2022/03/10 05:01:30;;;;;;;39.17;18.30;;;5.20;99.90;;;;;;5033274;28;20124;-62
2022/03/10 05:03:56;;;;;;;39.05;18.45;;;5.20;99.90;;;;;;5034781;28;20044;-63
2022/03/10 05:06:22;;;;;;;35.40;16.02;;;5.20;99.90;;;;;;5034666;28;20049;-63
2022/03/10 05:08:48;;;;;;;37.30;17.95;;;5.20;99.90;;;;;;5034552;28;20120;-63
2022/03/10 05:11:14;;;;;;;36.65;17.35;;;5.10;99.90;;;;;;5034290;28;20112;-62
2022/03/10 05:13:39;;;;;;;36.03;17.00;;;5.10;99.90;;;;;;5033770;28;20027;-62
2022/03/10 05:16:05;;;;;;;36.22;17.42;;;5.10;99.90;;;;;;5033245;28;20025;-62
2022/03/10 05:18:31;;;;;;;37.13;16.65;;;5.10;99.90;;;;;;5034223;28;20032;-63
2022/03/10 05:20:56;;;;;;;37.05;17.30;;;5.10;99.90;;;;;;5034226;28;20112;-63
2022/03/10 05:23:22;;;;;;;37.88;17.13;;;5.10;99.90;;;;;;5034671;28;20078;-63
2022/03/10 05:25:48;;;;;;;36.67;17.55;;;5.00;99.90;;;;;;5029995;28;20477;-64
2022/03/10 05:28:14;;;;;;;35.28;17.02;;;5.00;99.90;;;;;;5034247;28;20040;-63
2022/03/10 05:30:45;;;;;;;36.65;17.90;;;5.00;99.90;;;;;;5032955;28;20029;-64
2022/03/10 05:33:11;;;;;;;33.05;17.00;;;4.90;99.90;;;;;;5033350;28;20052;-64
2022/03/10 05:35:37;;;;;;;36.95;17.15;;;4.90;99.90;;;;;;5032987;28;20034;-62
2022/03/10 05:38:03;;;;;;;39.47;18.70;;;4.90;99.90;;;;;;5033631;28;20029;-61
2022/03/10 05:40:29;;;;;;;38.88;18.92;;;4.90;99.90;;;;;;5033362;28;20418;-62
2022/03/10 05:42:56;;;;;;;39.55;18.38;;;4.90;99.90;;;;;;5034233;28;20136;-62
2022/03/10 05:45:23;;;;;;;37.53;18.27;;;4.80;99.90;;;;;;5033271;28;20029;-62
2022/03/10 05:47:56;;;;;;;40.45;18.98;;;4.80;99.90;;;;;;5032978;28;20366;-62
2022/03/10 05:50:24;;;;;;;42.63;17.65;;;4.80;99.90;;;;;;5025902;28;20033;-62
2022/03/10 05:52:50;;;;;;;39.47;18.05;;;4.80;99.90;;;;;;5033822;28;20033;-63
2022/03/10 05:55:17;;;;;;;36.15;17.30;;;4.70;99.90;;;;;;5033224;28;20065;-62
2022/03/10 05:57:42;;;;;;;40.30;17.38;;;4.70;99.90;;;;;;5033540;28;20079;-62
2022/03/10 06:00:10;;;;;;;43.88;16.90;;;4.60;99.90;;;;;;5045337;28;20029;-63
2022/03/10 06:02:36;;;;;;;40.45;17.83;;;4.70;99.90;;;;;;5033768;28;20496;-62
2022/03/10 06:05:02;;;;;;;36.92;17.85;;;4.60;99.90;;;;;;5032900;28;20022;-62
2022/03/10 06:07:28;;;;;;;38.38;17.92;;;4.60;99.90;;;;;;5033259;28;20493;-63
2022/03/10 06:09:55;;;;;;;38.50;17.98;;;4.60;99.90;;;;;;5031348;28;20470;-66
2022/03/10 06:12:27;;;;;;;39.75;19.40;;;4.60;99.90;;;;;;5033489;28;20132;-63
2022/03/10 06:14:57;;;;;;;40.15;18.83;;;4.60;99.90;;;;;;5033024;28;20029;-63
2022/03/10 06:17:22;;;;;;;39.80;18.58;;;4.60;99.90;;;;;;5033419;28;20120;-66
2022/03/10 06:19:49;;;;;;;38.42;16.70;;;4.60;99.90;;;;;;5032840;28;20105;-64
2022/03/10 06:22:21;;;;;;;37.63;17.55;;;4.60;99.90;;;;;;5032759;28;20029;-64
2022/03/10 06:24:47;;;;;;;36.20;18.40;;;4.60;99.90;;;;;;5032324;28;20080;-63
2022/03/10 06:27:17;;;;;;;37.53;18.15;;;4.60;99.90;;;;;;5031806;28;20377;-65
2022/03/10 06:29:43;;;;;;;35.40;16.85;;;4.60;99.90;;;;;;5032119;28;20039;-64
2022/03/10 06:32:09;;;;;;;37.67;17.52;;;4.60;99.90;;;;;;5031793;28;20022;-62
2022/03/10 06:34:37;;;;;;;37.83;18.10;;;4.60;99.90;;;;;;5032774;28;20056;-65
2022/03/10 06:37:04;;;;;;;39.67;18.42;;;4.60;99.90;;;;;;5031327;28;20476;-65
2022/03/10 06:39:29;;;;;;;38.95;18.17;;;4.70;99.90;;;;;;5031132;28;20021;-64
2022/03/10 06:41:55;;;;;;;40.75;19.85;;;4.70;99.90;;;;;;5032901;28;20094;-61
2022/03/10 06:44:20;;;;;;;41.60;18.85;;;4.70;99.90;;;;;;5029773;28;20025;-62
2022/03/10 06:46:46;;;;;;;41.17;19.48;;;4.80;99.90;;;;;;5032764;28;20033;-64
2022/03/10 06:49:12;;;;;;;40.25;19.27;;;4.80;99.90;;;;;;5032531;28;20037;-65
2022/03/10 06:51:38;;;;;;;41.60;19.88;;;4.80;99.90;;;;;;5032557;28;20025;-63
2022/03/10 06:54:04;;;;;;;37.92;17.50;;;4.90;99.90;;;;;;5027424;28;20034;-63
2022/03/10 06:56:30;;;;;;;43.10;19.27;;;4.90;99.90;;;;;;5013109;28;20392;-62
2022/03/10 06:58:56;;;;;;;43.85;19.67;;;5.00;99.90;;;;;;5030341;28;20017;-62
2022/03/10 07:01:22;;;;;;;37.45;18.48;;;5.00;99.90;;;;;;5033233;28;20421;-63
2022/03/10 07:03:48;;;;;;;39.55;17.20;;;5.00;99.90;;;;;;5031737;28;20022;-64
2022/03/10 07:06:14;;;;;;;37.42;18.63;;;5.10;99.90;;;;;;5032593;28;20128;-65
2022/03/10 07:08:40;;;;;;;36.65;17.75;;;5.10;99.90;;;;;;5032318;28;20353;-66
2022/03/10 07:11:05;;;;;;;37.47;17.33;;;5.20;99.90;;;;;;5032845;28;20035;-66
2022/03/10 07:13:34;;;;;;;37.40;17.83;;;5.20;99.90;;;;;;5031842;28;20394;-64
2022/03/10 07:15:59;;;;;;;38.70;18.20;;;5.30;99.90;;;;;;5032064;28;20025;-65
2022/03/10 07:18:25;;;;;;;34.83;17.13;;;5.30;99.90;;;;;;5031810;28;20036;-61
2022/03/10 07:20:51;;;;;;;38.67;18.45;;;5.40;99.90;;;;;;5030302;28;20396;-63
2022/03/10 07:23:16;;;;;;;38.78;18.60;;;5.40;99.90;;;;;;5031727;28;20025;-62
2022/03/10 07:25:43;;;;;;;38.83;18.23;;;5.50;99.90;;;;;;5030462;28;20461;-66
2022/03/10 07:28:09;;;;;;;41.90;20.08;;;5.60;99.90;;;;;;5028976;28;20089;-66
2022/03/10 07:30:35;;;;;;;37.65;17.83;;;5.60;99.90;;;;;;5031136;28;20059;-63
2022/03/10 07:33:01;;;;;;;34.35;17.80;;;5.70;99.90;;;;;;5026603;28;20063;-63
2022/03/10 07:35:27;;;;;;;38.97;18.50;;;5.80;99.90;;;;;;5032035;28;20108;-65
2022/03/10 07:37:54;;;;;;;43.15;18.38;;;5.80;99.90;;;;;;5031420;28;20026;-66
2022/03/10 07:40:20;;;;;;;34.28;16.80;;;5.90;99.90;;;;;;5029744;28;20025;-65
2022/03/10 07:42:46;;;;;;;41.45;17.42;;;6.00;99.90;;;;;;5030855;28;20032;-64
2022/03/10 07:45:14;;;;;;;37.70;17.98;;;6.00;99.90;;;;;;5031534;28;20025;-63
2022/03/10 07:47:40;;;;;;;42.65;20.20;;;6.20;99.90;;;;;;5032158;28;20040;-65
2022/03/10 07:50:07;;;;;;;37.70;16.83;;;6.30;99.90;;;;;;5035528;28;20045;-62
2022/03/10 07:52:33;;;;;;;36.47;16.23;;;6.40;99.90;;;;;;5045236;28;20096;-64
2022/03/10 07:54:58;;;;;;;37.28;17.40;;;6.50;99.90;;;;;;5034673;28;20041;-63
2022/03/10 07:57:24;;;;;;;34.40;16.33;;;6.60;99.90;;;;;;5034337;28;20025;-64
2022/03/10 07:59:51;;;;;;;38.55;17.20;;;6.80;99.90;;;;;;5034091;28;20354;-62
2022/03/10 08:02:18;;;;;;;38.00;17.40;;;6.90;99.90;;;;;;5033955;28;20484;-62
2022/03/10 08:04:44;;;;;;;33.08;16.13;;;7.00;99.90;;;;;;5032064;28;20061;-62
2022/03/10 08:07:10;;;;;;;34.90;17.65;;;7.20;99.90;;;;;;5029950;28;20068;-63
2022/03/10 08:09:36;;;;;;;34.00;16.55;;;7.40;99.90;;;;;;5029462;28;20509;-62
2022/03/10 08:12:03;;;;;;;40.22;17.65;;;7.60;99.90;;;;;;5032285;28;20053;-62
2022/03/10 08:14:28;;;;;;;36.80;18.02;;;7.80;99.90;;;;;;5033301;28;20036;-62
2022/03/10 08:16:54;;;;;;;33.20;16.50;;;8.00;99.90;;;;;;5021229;28;20112;-63
2022/03/10 08:19:20;;;;;;;33.83;16.35;;;8.30;99.90;;;;;;5033259;28;20501;-63
2022/03/10 08:21:47;;;;;;;35.03;16.98;;;8.80;99.90;;;;;;5033596;28;20029;-61
2022/03/10 08:24:13;;;;;;;38.38;18.13;;;9.30;99.90;;;;;;5032939;28;20563;-62
2022/03/10 08:26:39;;;;;;;34.10;17.23;;;10.10;99.30;;;;;;5027924;28;20038;-63
2022/03/10 08:29:05;;;;;;;34.33;16.55;;;10.90;97.90;;;;;;5020692;28;20025;-63
2022/03/10 08:31:30;;;;;;;34.15;16.63;;;11.60;96.40;;;;;;5033560;28;20041;-63
2022/03/10 08:33:56;;;;;;;32.30;16.83;;;12.30;95.20;;;;;;5037303;28;20083;-62
2022/03/10 08:36:21;;;;;;;32.25;17.25;;;13.10;93.80;;;;;;5035074;28;20021;-62
2022/03/10 08:38:47;;;;;;;29.65;16.77;;;13.80;91.80;;;;;;5033456;28;20034;-63
2022/03/10 08:41:57;;;;;;;32.40;17.13;;;14.50;90.80;;;;;;5031324;28;20098;-63
2022/03/10 08:44:26;;;;;;;31.25;17.35;;;15.50;88.50;;;;;;5026793;28;20103;-62
2022/03/10 08:46:52;;;;;;;30.60;18.13;;;16.50;84.20;;;;;;5034355;28;20473;-62
2022/03/10 08:49:18;;;;;;;32.88;17.30;;;17.30;80.50;;;;;;5038097;28;20025;-62
2022/03/10 08:51:45;;;;;;;34.15;18.75;;;18.10;76.30;;;;;;5036032;28;20565;-63
2022/03/10 08:54:12;;;;;;;30.73;18.25;;;18.80;73.70;;;;;;5034207;28;20041;-62
2022/03/10 08:56:38;;;;;;;31.13;18.50;;;19.40;70.00;;;;;;5033858;28;20022;-62
2022/03/10 08:59:03;;;;;;;32.53;19.65;;;20.00;67.90;;;;;;5034424;28;20040;-63
2022/03/10 09:01:29;;;;;;;34.58;20.23;;;20.40;65.10;;;;;;5035662;28;20123;-64
2022/03/10 09:03:55;;;;;;;36.25;20.10;;;20.80;64.30;;;;;;5036184;28;20556;-65
2022/03/10 09:06:20;;;;;;;34.55;19.70;;;21.20;61.50;;;;;;5035976;28;20079;-64
2022/03/10 09:08:46;;;;;;;32.90;19.13;;;21.50;60.20;;;;;;5042146;28;20034;-63
2022/03/10 09:11:12;;;;;;;33.03;18.75;;;21.60;58.50;;;;;;5032682;28;20383;-62
2022/03/10 09:13:37;;;;;;;32.72;19.17;;;21.40;58.30;;;;;;5027212;28;20026;-62
2022/03/10 09:16:04;;;;;;;30.30;18.40;;;21.40;58.00;;;;;;5032972;28;20029;-64
2022/03/10 09:18:29;;;;;;;33.30;18.33;;;21.70;57.40;;;;;;5035234;28;20049;-62
2022/03/10 09:20:55;;;;;;;30.70;17.35;;;22.00;56.10;;;;;;5023776;28;20103;-63
2022/03/10 09:23:21;;;;;;;31.20;15.45;;;21.80;55.10;;;;;;5030258;28;20021;-65
2022/03/10 09:25:46;;;;;;;35.33;19.67;;;21.60;55.00;;;;;;5029849;28;20087;-64
2022/03/10 09:28:13;;;;;;;31.50;19.00;;;21.20;55.50;;;;;;5030036;28;20044;-65
2022/03/10 09:30:38;;;;;;;28.85;16.63;;;20.90;55.70;;;;;;5023399;28;20036;-65
2022/03/10 09:33:04;;;;;;;33.42;17.60;;;20.60;55.80;;;;;;5031635;28;20033;-63
2022/03/10 09:35:30;;;;;;;34.53;18.50;;;20.40;56.10;;;;;;5032139;28;20029;-65
2022/03/10 09:37:55;;;;;;;29.55;16.15;;;20.10;56.20;;;;;;5032953;28;20061;-64
2022/03/10 09:40:21;;;;;;;31.70;17.23;;;19.90;56.50;;;;;;5032310;28;20072;-65
2022/03/10 09:42:48;;;;;;;32.40;18.17;;;19.90;57.00;;;;;;5033531;28;20029;-63
2022/03/10 09:45:17;;;;;;;33.50;18.85;;;20.00;56.70;;;;;;5033766;28;20036;-63
2022/03/10 09:47:44;;;;;;;32.28;18.45;;;20.20;56.50;;;;;;5034541;28;20292;-63
2022/03/10 09:50:14;;;;;;;30.15;16.00;;;20.50;56.30;;;;;;5029943;28;20029;-62
2022/03/10 09:52:42;;;;;;;31.45;16.73;;;20.80;55.90;;;;;;5026080;28;20087;-62
2022/03/10 09:55:08;;;;;;;30.08;18.00;;;21.10;55.80;;;;;;5029499;28;20025;-63
2022/03/10 09:57:37;;;;;;;32.92;18.52;;;21.30;55.10;;;;;;5042391;28;20033;-63
2022/03/10 10:00:05;;;;;;;30.73;17.75;;;21.50;55.20;;;;;;5045823;28;20079;-62
2022/03/10 10:02:30;;;;;;;29.17;17.50;;;22.00;54.60;;;;;;5033215;28;20037;-63
2022/03/10 10:04:56;;;;;;;30.38;17.67;;;22.30;54.30;;;;;;5036500;28;20029;-62
2022/03/10 10:07:29;;;;;;;30.25;18.02;;;22.50;53.60;;;;;;5034586;28;20037;-62
2022/03/10 10:09:57;;;;;;;32.25;18.13;;;22.60;53.60;;;;;;5021114;28;20446;-63
2022/03/10 10:12:27;;;;;;;31.67;17.38;;;22.60;53.50;;;;;;5020614;28;20029;-63
2022/03/10 10:14:54;;;;;;;30.02;18.50;;;22.80;52.90;;;;;;5020125;28;20466;-62
2022/03/10 10:17:29;;;;;;;28.15;16.50;;;23.00;52.80;;;;;;5013477;28;20512;-63
2022/03/10 10:19:59;;;;;;;31.40;18.20;;;23.20;52.50;;;;;;5018974;28;20041;-63
2022/03/10 10:22:26;;;;;;;31.85;17.58;;;23.30;52.20;;;;;;5024090;28;20041;-63
2022/03/10 10:25:05;;;;;;;31.50;17.98;;;23.30;52.00;;;;;;5015770;28;20398;-63
2022/03/10 10:27:32;;;;;;;31.60;18.52;;;23.20;52.40;;;;;;5025373;28;20045;-62
2022/03/10 10:30:01;;;;;;;29.35;17.67;;;23.40;52.20;;;;;;5023181;28;20080;-62
2022/03/10 10:32:31;;;;;;;31.02;17.05;;;23.50;51.90;;;;;;5016763;28;20030;-62
2022/03/10 10:35:09;;;;;;;29.33;16.75;;;23.70;51.60;;;;;;5026765;28;20104;-62
2022/03/10 10:37:37;;;;;;;31.45;17.83;;;24.00;51.30;;;;;;5020841;28;20048;-64
2022/03/10 10:40:05;;;;;;;28.50;17.40;;;24.00;51.10;;;;;;5028750;28;20061;-66
2022/03/10 10:42:38;;;;;;;30.77;18.33;;;24.30;50.80;;;;;;5026260;28;20038;-63
2022/03/10 10:45:27;;;;;;;29.48;16.88;;;24.40;50.40;;;;;;5029347;28;20029;-64
2022/03/10 10:48:04;;;;;;;27.80;17.08;;;24.50;50.50;;;;;;5028691;28;20029;-63
2022/03/10 10:50:32;;;;;;;29.95;17.58;;;24.80;50.10;;;;;;5030046;28;20045;-63
2022/03/10 10:52:58;;;;;;;31.23;18.73;;;24.90;50.20;;;;;;5028214;28;20021;-64
2022/03/10 10:55:45;;;;;;;30.90;18.05;;;25.00;50.10;;;;;;5032766;28;20489;-64
2022/03/10 10:58:14;;;;;;;29.75;17.73;;;25.20;50.30;;;;;;5028176;28;20387;-66
2022/03/10 11:00:45;;;;;;;29.33;18.30;;;25.30;49.90;;;;;;5011418;28;20029;-64
2022/03/10 11:03:23;;;;;;;28.60;17.95;;;25.30;50.20;;;;;;5027861;28;20053;-66
2022/03/10 11:05:50;;;;;;;26.33;16.77;;;25.40;49.70;;;;;;5027163;28;20044;-65
2022/03/10 11:08:17;;;;;;;28.70;18.65;;;25.70;49.20;;;;;;5029874;28;20030;-62
2022/03/10 11:10:43;;;;;;;31.15;20.20;;;26.00;49.10;;;;;;5027442;28;20113;-66
2022/03/10 11:13:09;;;;;;;28.02;18.02;;;26.40;49.00;;;;;;5026976;28;20526;-65
2022/03/10 11:15:35;;;;;;;30.88;18.63;;;26.90;48.50;;;;;;5025336;28;20049;-65
2022/03/10 11:18:03;;;;;;;28.80;17.75;;;27.20;47.70;;;;;;5026595;28;20030;-67
2022/03/10 11:20:30;;;;;;;29.67;18.52;;;27.50;47.40;;;;;;5029289;28;20022;-64
2022/03/10 11:23:07;;;;;;;27.85;17.90;;;27.70;47.00;;;;;;5033479;28;20108;-67
2022/03/10 11:26:07;;;;;;;25.17;15.95;;;27.90;46.20;;;;;;5035739;28;20059;-64
2022/03/10 11:28:33;;;;;;;28.88;17.85;;;28.00;45.60;;;;;;5048447;28;20020;-64
2022/03/10 11:31:03;;;;;;;27.75;18.40;;;27.90;45.90;;;;;;5039762;28;20037;-64
2022/03/10 11:33:36;;;;;;;27.80;16.33;;;27.90;45.50;;;;;;5036575;28;20120;-65
2022/03/10 11:36:30;;;;;;;27.45;17.38;;;28.00;44.80;;;;;;5025861;28;20033;-63
2022/03/10 11:39:08;;;;;;;27.20;16.50;;;27.70;45.10;;;;;;5017736;28;20105;-64
2022/03/10 11:41:53;;;;;;;29.17;18.20;;;27.30;44.80;;;;;;5034711;28;20033;-64
2022/03/10 11:44:23;;;;;;;26.98;17.40;;;27.10;45.20;;;;;;5016587;28;20099;-63
2022/03/10 11:47:00;;;;;;;28.52;18.05;;;26.90;45.00;;;;;;5016688;28;20038;-67
2022/03/10 11:49:41;;;;;;;27.05;16.95;;;26.80;46.10;;;;;;5016493;28;20034;-63
2022/03/10 11:52:23;;;;;;;25.08;15.35;;;26.70;44.80;;;;;;5022523;28;20028;-66
2022/03/10 11:55:09;;;;;;;27.85;16.38;;;26.60;44.80;;;;;;5036516;28;20056;-67
2022/03/10 11:57:43;;;;;;;32.95;17.75;;;26.70;44.80;;;;;;5035129;28;20030;-65
2022/03/10 12:00:09;;;;;;;27.48;14.93;;;26.60;44.80;;;;;;5026126;28;20030;-67
2022/03/10 12:02:40;;;;;;;27.40;15.70;;;26.40;44.80;;;;;;5016362;28;20030;-62
2022/03/10 12:05:07;;;;;;;26.30;16.67;;;25.90;44.90;;;;;;5019116;28;20116;-64
2022/03/10 12:07:33;;;;;;;28.73;15.95;;;25.40;45.60;;;;;;5035811;28;20037;-65
2022/03/10 12:10:08;;;;;;;26.95;15.07;;;25.30;45.40;;;;;;5034919;28;20033;-63
2022/03/10 12:12:42;;;;;;;27.80;16.38;;;25.40;45.50;;;;;;5035922;28;20021;-65
2022/03/10 12:15:30;;;;;;;26.92;15.73;;;25.50;45.50;;;;;;5036032;28;20025;-63
2022/03/10 12:17:56;;;;;;;27.08;16.27;;;25.70;45.30;;;;;;5036316;28;20022;-63
2022/03/10 12:20:36;;;;;;;26.63;14.93;;;25.90;45.20;;;;;;5035297;28;20026;-64
2022/03/10 12:23:09;;;;;;;25.75;15.38;;;26.10;44.70;;;;;;5036668;28;20018;-62
2022/03/10 12:25:54;;;;;;;25.95;15.00;;;26.10;43.70;;;;;;5030406;28;20136;-62
2022/03/10 12:28:21;;;;;;;25.42;14.40;;;26.10;43.70;;;;;;5035455;28;20346;-66
2022/03/10 12:30:48;;;;;;;26.40;14.27;;;26.00;43.50;;;;;;5026114;28;20088;-65
2022/03/10 12:33:13;;;;;;;22.58;13.10;;;25.90;43.30;;;;;;5015644;28;20030;-64
2022/03/10 12:35:41;;;;;;;24.35;13.15;;;25.80;43.60;;;;;;5015901;28;20028;-65
2022/03/10 12:38:08;;;;;;;24.88;12.95;;;25.30;42.50;;;;;;5038982;28;20029;-64
2022/03/10 12:40:35;;;;;;;25.70;14.38;;;25.00;43.30;;;;;;5046506;28;20069;-65